Time;durP1;ratioP1;P1;durP2;ratioP2;P2;SDS_P1;SDS_P2;PMS_P1;PMS_P2;Temp;Humidity;BMP_temperature;BMP_pressure;BME280_temperature;BME280_humidity;BME280_pressure;Samples;Min_cycle;Max_cycle;Signal;HPM_P1;HPM_P2
2023/05/12 00:01:16;;;;;;;14.20;10.80;;;;;;;9.82;54.75;101353.61;106236;1257;59633;-66
2023/05/12 00:03:43;;;;;;;16.80;11.50;;;;;;;9.82;54.59;101353.05;106260;1257;65521;-66
2023/05/12 00:06:11;;;;;;;15.60;11.20;;;;;;;9.84;54.32;101353.87;106250;1255;62382;-65
2023/05/12 00:08:38;;;;;;;14.60;10.40;;;;;;;9.84;54.02;101355.77;106234;1260;65169;-63
2023/05/12 00:11:05;;;;;;;14.20;10.90;;;;;;;9.83;53.63;101353.20;106375;1257;59661;-64
2023/05/12 00:13:32;;;;;;;15.10;10.70;;;;;;;9.80;53.23;101351.06;106373;1255;59688;-64
2023/05/12 00:15:59;;;;;;;16.90;11.60;;;;;;;9.79;52.92;101349.39;106393;1255;66210;-65
2023/05/12 00:18:27;;;;;;;9.50;5.00;;;;;;;9.82;52.29;101351.85;106407;1257;62387;-65
2023/05/12 00:20:54;;;;;;;15.00;9.90;;;;;;;9.85;52.11;101354.29;106267;1254;65054;-65
2023/05/12 00:23:22;;;;;;;13.80;10.60;;;;;;;9.86;52.04;101356.32;106337;1259;59532;-64
2023/05/12 00:25:49;;;;;;;15.10;10.10;;;;;;;9.86;52.19;101355.44;106320;1254;59941;-65
2023/05/12 00:28:17;;;;;;;17.40;11.20;;;;;;;9.85;52.05;101354.63;106201;1260;65465;-65
2023/05/12 00:30:44;;;;;;;15.50;10.00;;;;;;;9.82;51.46;101358.30;106138;1259;62758;-65
2023/05/12 00:33:11;;;;;;;15.10;10.10;;;;;;;9.79;51.13;101359.06;106349;1254;65106;-63
2023/05/12 00:35:38;;;;;;;16.30;9.90;;;;;;;9.75;51.41;101360.66;106304;1253;59631;-63
2023/05/12 00:38:05;;;;;;;13.00;9.60;;;;;;;9.71;51.23;101359.18;106291;1254;59726;-64
2023/05/12 00:40:32;;;;;;;9.60;4.90;;;;;;;9.65;50.65;101356.22;106484;1254;65486;-63
2023/05/12 00:42:59;;;;;;;14.30;9.80;;;;;;;9.60;50.05;101358.06;106266;1254;63984;-66
2023/05/12 00:45:28;;;;;;;12.80;9.40;;;;;;;9.58;49.65;101358.77;106263;1260;66540;-63
2023/05/12 00:47:55;;;;;;;16.30;10.80;;;;;;;9.56;49.50;101363.07;106317;1261;59968;-63
2023/05/12 00:50:23;;;;;;;15.20;10.30;;;;;;;9.54;49.70;101363.70;106307;1254;60191;-63
2023/05/12 00:52:50;;;;;;;14.50;10.00;;;;;;;9.52;50.11;101362.10;106146;1254;66507;-64
2023/05/12 00:55:17;;;;;;;13.70;9.80;;;;;;;9.46;50.27;101361.20;106219;1251;64179;-63
2023/05/12 00:57:44;;;;;;;13.10;10.20;;;;;;;9.41;50.58;101363.05;106272;1254;66126;-63
2023/05/12 01:00:12;;;;;;;14.70;10.40;;;;;;;9.36;50.83;101366.34;106495;1261;59644;-63
2023/05/12 01:02:41;;;;;;;14.30;10.30;;;;;;;9.31;50.92;101363.50;106408;1254;59630;-63
2023/05/12 01:05:08;;;;;;;13.90;9.80;;;;;;;9.26;50.89;101360.80;106245;1260;65114;-63
2023/05/12 01:07:36;;;;;;;12.50;9.30;;;;;;;9.25;50.74;101364.75;106217;1257;63402;-63
2023/05/12 01:10:04;;;;;;;15.00;9.60;;;;;;;9.24;50.83;101368.06;106236;1255;65964;-63
2023/05/12 01:12:33;;;;;;;13.70;9.70;;;;;;;9.24;51.04;101367.20;107218;1257;59285;-62
2023/05/12 01:15:01;;;;;;;12.30;9.30;;;;;;;9.25;51.21;101368.05;106318;1259;59519;-62
2023/05/12 01:17:31;;;;;;;12.90;9.50;;;;;;;9.24;51.31;101372.16;106290;1253;66302;-66
2023/05/12 01:20:00;;;;;;;13.60;10.10;;;;;;;9.22;51.36;101372.59;107301;1258;62776;-62
2023/05/12 01:22:30;;;;;;;15.00;10.40;;;;;;;9.19;51.47;101373.15;106446;1254;65148;-62
2023/05/12 01:24:58;;;;;;;17.90;5.50;;;;;;;9.16;51.69;101371.76;106282;1259;59771;-63
2023/05/12 01:27:27;;;;;;;16.50;9.80;;;;;;;9.15;51.96;101370.58;106394;1257;59743;-62
2023/05/12 01:29:57;;;;;;;17.30;10.40;;;;;;;9.16;52.12;101374.39;106332;1257;68819;-63
2023/05/12 01:32:25;;;;;;;14.40;10.30;;;;;;;9.17;51.97;101375.67;106822;1254;63962;-63
2023/05/12 01:34:52;;;;;;;13.20;9.80;;;;;;;9.18;51.93;101379.85;106328;1258;65050;-63
2023/05/12 01:37:20;;;;;;;16.90;9.90;;;;;;;9.16;52.25;101378.57;106266;1254;59753;-63
2023/05/12 01:39:47;;;;;;;12.30;9.80;;;;;;;9.13;52.30;101375.22;106195;1254;59934;-63
2023/05/12 01:42:18;;;;;;;18.80;9.80;;;;;;;9.08;52.41;101373.38;106278;1255;65358;-65
2023/05/12 01:44:46;;;;;;;16.10;9.80;;;;;;;9.02;52.46;101374.30;106363;1254;62958;-62
2023/05/12 01:47:14;;;;;;;7.70;4.00;;;;;;;8.95;52.54;101371.34;106252;1255;66172;-63
2023/05/12 01:49:47;;;;;;;14.30;10.10;;;;;;;8.90;52.64;101374.79;106248;1254;59740;-62
2023/05/12 01:52:15;;;;;;;13.30;10.20;;;;;;;8.87;52.75;101375.83;106183;1254;59644;-63
2023/05/12 01:54:42;;;;;;;12.30;8.90;;;;;;;8.82;52.76;101377.15;106305;1254;66630;-64
2023/05/12 01:57:10;;;;;;;11.70;5.10;;;;;;;8.78;52.81;101377.25;106194;1254;63770;-63
2023/05/12 01:59:37;;;;;;;13.20;9.00;;;;;;;8.72;52.81;101379.80;106277;1258;66189;-62
2023/05/12 02:02:05;;;;;;;15.00;9.10;;;;;;;8.70;52.81;101378.20;106190;1254;61549;-63
2023/05/12 02:04:33;;;;;;;13.80;9.30;;;;;;;8.69;52.70;101379.29;106279;1260;60364;-62
2023/05/12 02:07:01;;;;;;;12.50;9.10;;;;;;;8.68;52.75;101380.21;106294;1254;67707;-63
2023/05/12 02:09:28;;;;;;;9.40;4.20;;;;;;;8.66;52.85;101377.52;106145;1254;63589;-62
2023/05/12 02:11:58;;;;;;;13.30;10.00;;;;;;;8.62;53.12;101380.37;106272;1254;65113;-63
2023/05/12 02:14:25;;;;;;;13.10;9.50;;;;;;;8.59;53.40;101379.55;106493;1254;60536;-65
2023/05/12 02:16:54;;;;;;;14.10;9.70;;;;;;;8.57;53.56;101377.88;106249;1259;60843;-62
2023/05/12 02:19:22;;;;;;;11.20;8.90;;;;;;;8.56;53.62;101380.20;106333;1254;66241;-62
2023/05/12 02:21:49;;;;;;;13.30;4.40;;;;;;;8.54;53.70;101384.13;106259;1254;64012;-63
2023/05/12 02:24:16;;;;;;;10.30;8.90;;;;;;;8.52;53.82;101386.02;106292;1254;65168;-62
2023/05/12 02:26:43;;;;;;;14.40;10.30;;;;;;;8.50;53.82;101383.00;106124;1254;60457;-65
2023/05/12 02:29:11;;;;;;;7.40;3.80;;;;;;;8.48;54.04;101386.43;106169;1253;60371;-65
2023/05/12 02:31:38;;;;;;;10.40;8.00;;;;;;;8.52;54.06;101382.89;106159;1260;67475;-65
2023/05/12 02:34:14;;;;;;;;;;;;;;;8.59;54.22;101385.46;106178;1258;63805;-65
2023/05/12 02:36:41;;;;;;;12.10;9.00;;;;;;;8.68;54.39;101384.43;106301;1258;66634;-63
2023/05/12 02:39:09;;;;;;;18.10;10.00;;;;;;;8.78;54.34;101385.63;106234;1253;60507;-63
2023/05/12 02:41:36;;;;;;;9.60;4.50;;;;;;;8.85;54.33;101386.98;106259;1254;60316;-63
2023/05/12 02:44:04;;;;;;;12.80;9.80;;;;;;;8.89;54.51;101387.28;106216;1254;67115;-64
2023/05/12 02:46:31;;;;;;;13.70;9.50;;;;;;;8.92;54.72;101389.90;106234;1260;63735;-66
2023/05/12 02:48:58;;;;;;;11.80;9.10;;;;;;;8.93;55.20;101390.86;106269;1264;66136;-66
2023/05/12 02:51:25;;;;;;;12.10;8.90;;;;;;;8.93;55.57;101388.27;106155;1254;60610;-67
2023/05/12 02:53:52;;;;;;;8.80;4.40;;;;;;;8.90;55.89;101385.46;106182;1254;60620;-67
2023/05/12 02:56:19;;;;;;;15.00;10.10;;;;;;;8.83;55.87;101389.16;106252;1254;67215;-68
2023/05/12 02:58:47;;;;;;;13.40;9.90;;;;;;;8.77;55.62;101388.83;106415;1254;63411;-65
2023/05/12 03:01:13;;;;;;;13.40;9.00;;;;;;;8.74;55.41;101388.30;106237;1254;73605;-68
2023/05/12 03:03:41;;;;;;;13.30;10.10;;;;;;;8.70;54.92;101389.52;106304;1260;60444;-66
2023/05/12 03:06:08;;;;;;;7.90;4.10;;;;;;;8.66;54.69;101388.19;106216;1254;60505;-65
2023/05/12 03:08:35;;;;;;;14.90;10.30;;;;;;;8.64;54.80;101390.44;106181;1260;67279;-67
2023/05/12 03:11:03;;;;;;;13.40;10.10;;;;;;;8.64;54.97;101391.85;106208;1260;62607;-65
2023/05/12 03:13:30;;;;;;;13.00;9.90;;;;;;;8.64;55.18;101393.42;106283;1254;66528;-65
2023/05/12 03:16:00;;;;;;;15.00;10.10;;;;;;;8.64;55.46;101391.30;106317;1254;60387;-64
2023/05/12 03:18:28;;;;;;;13.10;9.00;;;;;;;8.65;55.73;101393.18;106724;1260;60406;-64
2023/05/12 03:20:56;;;;;;;12.10;8.90;;;;;;;8.71;55.93;101393.01;106196;1259;66552;-63
2023/05/12 03:23:23;;;;;;;17.50;9.10;;;;;;;8.82;55.97;101399.74;106775;1254;63790;-64
2023/05/12 03:25:50;;;;;;;14.80;9.90;;;;;;;8.95;55.90;101406.55;106278;1254;73882;-65
2023/05/12 03:28:18;;;;;;;11.40;8.30;;;;;;;9.06;55.88;101408.16;106273;1260;61057;-64
2023/05/12 03:30:44;;;;;;;13.60;9.90;;;;;;;9.20;55.46;101404.77;106234;1254;60448;-65
2023/05/12 03:33:11;;;;;;;11.80;8.70;;;;;;;9.32;55.08;101409.66;106384;1254;67096;-59
2023/05/12 03:35:38;;;;;;;12.60;9.00;;;;;;;9.41;54.85;101408.27;106301;1254;63707;-60
2023/05/12 03:38:06;;;;;;;13.70;8.70;;;;;;;9.48;54.36;101413.43;106242;1257;66487;-61
2023/05/12 03:40:32;;;;;;;10.90;7.50;;;;;;;9.54;52.53;101415.02;106238;1260;60473;-64
2023/05/12 03:42:59;;;;;;;12.30;7.70;;;;;;;9.58;51.35;101416.73;106331;1254;60892;-65
2023/05/12 03:45:26;;;;;;;11.20;8.40;;;;;;;9.61;50.64;101415.84;106128;1253;66159;-64
2023/05/12 03:47:54;;;;;;;12.10;8.40;;;;;;;9.65;50.49;101415.27;106350;1254;63031;-64
2023/05/12 03:50:21;;;;;;;11.30;8.50;;;;;;;9.73;50.39;101415.86;106164;1259;66220;-62
2023/05/12 03:52:48;;;;;;;12.20;8.30;;;;;;;9.80;50.08;101411.36;107539;1254;60472;-64
2023/05/12 03:55:15;;;;;;;12.90;8.00;;;;;;;9.88;49.73;101409.85;106185;1254;60440;-65
2023/05/12 03:57:42;;;;;;;12.10;8.00;;;;;;;9.96;49.55;101411.33;106212;1254;65878;-64
2023/05/12 04:00:10;;;;;;;11.70;8.60;;;;;;;10.02;49.17;101406.39;106205;1254;62568;-62
2023/05/12 04:02:42;;;;;;;12.50;8.00;;;;;;;10.09;48.80;101405.79;106232;1257;64996;-62
2023/05/12 04:05:10;;;;;;;10.90;8.20;;;;;;;10.15;48.65;101409.24;106322;1252;60520;-61
2023/05/12 04:07:37;;;;;;;11.60;7.80;;;;;;;10.23;48.35;101414.05;106306;1253;60378;-63
2023/05/12 04:10:04;;;;;;;11.90;8.00;;;;;;;10.30;48.25;101411.84;106365;1260;65961;-63
2023/05/12 04:12:31;;;;;;;14.30;8.30;;;;;;;10.38;48.18;101409.59;106261;1254;64110;-65
2023/05/12 04:14:59;;;;;;;13.40;7.90;;;;;;;10.48;48.00;101415.84;106216;1254;65120;-69
2023/05/12 04:17:26;;;;;;;11.20;8.00;;;;;;;10.57;47.96;101417.69;106474;1254;60424;-72
2023/05/12 04:19:53;;;;;;;12.20;8.10;;;;;;;10.67;48.15;101417.80;106185;1254;60460;-70
2023/05/12 04:22:20;;;;;;;13.00;8.50;;;;;;;10.76;47.67;101418.29;106286;1251;67302;-70
2023/05/12 04:24:50;;;;;;;12.40;8.10;;;;;;;10.85;47.09;101421.02;106275;1253;63460;-70
2023/05/12 04:27:18;;;;;;;11.30;8.00;;;;;;;10.93;46.78;101423.81;106196;1254;65923;-69
2023/05/12 04:29:44;;;;;;;13.50;8.30;;;;;;;11.02;46.42;101426.92;106242;1259;60546;-69
2023/05/12 04:32:12;;;;;;;11.90;8.10;;;;;;;11.10;45.90;101428.50;106172;1259;60437;-71
2023/05/12 04:34:39;;;;;;;10.70;7.90;;;;;;;11.20;45.91;101430.17;106294;1251;67676;-70
2023/05/12 04:37:07;;;;;;;12.70;9.00;;;;;;;11.29;45.77;101433.45;106284;1259;63616;-71
2023/05/12 04:39:34;;;;;;;13.50;8.70;;;;;;;11.36;45.49;101435.42;106306;1253;65004;-71
2023/05/12 04:42:01;;;;;;;14.40;10.20;;;;;;;11.42;45.57;101440.81;106318;1253;60621;-72
2023/05/12 04:44:31;;;;;;;13.60;9.20;;;;;;;11.51;45.64;101440.07;106416;1254;60446;-68
2023/05/12 04:46:58;;;;;;;13.20;9.40;;;;;;;11.60;45.56;101438.23;106344;1259;67011;-73
2023/05/12 04:49:26;;;;;;;12.90;8.70;;;;;;;11.66;45.36;101438.14;106497;1254;63737;-69
2023/05/12 04:51:53;;;;;;;14.80;9.60;;;;;;;11.75;45.57;101436.36;106462;1254;66156;-71
2023/05/12 04:54:20;;;;;;;14.30;9.90;;;;;;;11.84;45.92;101434.51;106397;1254;60309;-70
2023/05/12 04:56:47;;;;;;;13.50;9.60;;;;;;;11.94;46.24;101430.48;106482;1259;60511;-69
2023/05/12 04:59:15;;;;;;;15.90;10.50;;;;;;;12.03;46.31;101427.59;106421;1254;66232;-70
2023/05/12 05:01:42;;;;;;;13.70;9.30;;;;;;;12.13;46.34;101423.74;106493;1253;63803;-70
2023/05/12 05:04:09;;;;;;;14.20;10.10;;;;;;;12.22;46.12;101424.88;106373;1260;66423;-71
2023/05/12 05:06:36;;;;;;;14.90;10.80;;;;;;;12.30;46.19;101425.02;106528;1253;60511;-71
2023/05/12 05:09:04;;;;;;;14.20;9.70;;;;;;;12.38;46.48;101427.39;106367;1254;60372;-70
2023/05/12 05:11:31;;;;;;;14.30;10.30;;;;;;;12.47;46.61;101428.91;106185;1253;67407;-69
2023/05/12 05:13:58;;;;;;;12.00;9.30;;;;;;;12.54;46.95;101428.63;106303;1253;63649;-70
2023/05/12 05:16:27;;;;;;;17.00;10.10;;;;;;;12.62;47.31;101433.85;106241;1259;64967;-71
2023/05/12 05:18:56;;;;;;;12.50;9.70;;;;;;;12.70;47.52;101436.94;106294;1254;60427;-69
2023/05/12 05:21:25;;;;;;;14.40;9.40;;;;;;;12.78;47.66;101440.05;106665;1259;60167;-70
2023/05/12 05:23:53;;;;;;;16.40;10.60;;;;;;;12.88;47.83;101436.54;106515;1254;74867;-71
2023/05/12 05:26:21;;;;;;;13.60;10.40;;;;;;;12.96;48.05;101435.23;106394;1254;63494;-70
2023/05/12 05:28:53;;;;;;;17.00;10.00;;;;;;;13.04;48.36;101432.89;106422;1253;65165;-70
2023/05/12 05:31:23;;;;;;;17.10;10.20;;;;;;;13.13;48.56;101433.81;106326;1254;60972;-71
2023/05/12 05:33:50;;;;;;;16.00;9.90;;;;;;;13.21;48.76;101435.17;106361;1253;60444;-71
2023/05/12 05:36:18;;;;;;;15.30;9.60;;;;;;;13.30;48.92;101432.91;106422;1257;68768;-74
2023/05/12 05:38:47;;;;;;;11.90;9.80;;;;;;;13.40;48.93;101431.30;106343;1253;60785;-72
2023/05/12 05:41:14;;;;;;;13.70;10.10;;;;;;;13.49;48.49;101433.46;106631;1254;66153;-75
2023/05/12 05:43:41;;;;;;;11.60;9.10;;;;;;;13.56;48.34;101429.54;106630;1260;60435;-73
2023/05/12 05:46:09;;;;;;;11.90;9.40;;;;;;;13.65;48.50;101432.98;107372;1253;62199;-72
2023/05/12 05:48:37;;;;;;;13.00;9.40;;;;;;;13.73;48.43;101430.40;106372;1254;66219;-74
2023/05/12 05:51:05;;;;;;;16.20;9.70;;;;;;;13.82;48.09;101435.36;106379;1254;62812;-75
2023/05/12 05:53:32;;;;;;;13.50;9.50;;;;;;;13.90;47.83;101432.27;106286;1254;66237;-72
2023/05/12 05:56:00;;;;;;;11.90;9.50;;;;;;;13.99;48.21;101430.85;106344;1254;60479;-66
2023/05/12 05:58:27;;;;;;;13.80;9.70;;;;;;;14.10;47.82;101432.48;106344;1254;60409;-71
2023/05/12 06:00:54;;;;;;;11.50;8.90;;;;;;;14.20;47.24;101433.67;106287;1252;67349;-64
2023/05/12 06:03:22;;;;;;;12.30;9.30;;;;;;;14.29;47.15;101433.65;106533;1259;62824;-65
2023/05/12 06:05:49;;;;;;;12.20;9.20;;;;;;;14.39;47.05;101435.54;106389;1257;66061;-72
2023/05/12 06:08:16;;;;;;;12.50;8.60;;;;;;;14.48;47.05;101435.83;106180;1257;60479;-67
2023/05/12 06:10:43;;;;;;;13.10;9.60;;;;;;;14.57;47.18;101437.58;106444;1253;60428;-66
2023/05/12 06:13:11;;;;;;;11.00;8.50;;;;;;;14.67;47.24;101433.67;106453;1257;67313;-66
2023/05/12 06:15:38;;;;;;;15.20;9.60;;;;;;;14.77;47.43;101432.71;106306;1254;63486;-71
2023/05/12 06:18:05;;;;;;;11.60;8.50;;;;;;;14.87;47.43;101433.48;106291;1254;66132;-69
2023/05/12 06:20:33;;;;;;;13.10;9.80;;;;;;;14.96;47.09;101434.99;104757;1254;60545;-65
2023/05/12 06:23:00;;;;;;;11.30;8.60;;;;;;;15.05;47.02;101436.43;106047;1254;60449;-72
2023/05/12 06:25:27;;;;;;;10.70;8.20;;;;;;;15.13;46.90;101439.46;108591;1254;66064;-68
2023/05/12 06:27:55;;;;;;;12.80;8.70;;;;;;;15.22;46.52;101440.52;108614;1254;63991;-69
2023/05/12 06:30:22;;;;;;;11.70;8.20;;;;;;;15.30;46.18;101443.36;106279;1260;67110;-68
2023/05/12 06:32:53;;;;;;;11.70;8.00;;;;;;;15.41;45.98;101444.08;106379;1254;60546;-67
2023/05/12 06:35:21;;;;;;;9.60;7.00;;;;;;;15.50;45.96;101439.92;106535;1253;60492;-72
2023/05/12 06:37:49;;;;;;;11.40;7.70;;;;;;;15.59;45.12;101440.77;106421;1257;67427;-71
2023/05/12 06:40:16;;;;;;;12.60;7.10;;;;;;;15.67;44.23;101442.23;106394;1254;63721;-71
2023/05/12 06:42:44;;;;;;;11.10;6.70;;;;;;;15.75;43.28;101441.02;106306;1254;66415;-71
2023/05/12 06:45:15;;;;;;;8.90;6.30;;;;;;;15.82;42.40;101439.56;106542;1257;59934;-67
2023/05/12 06:47:42;;;;;;;9.20;6.30;;;;;;;15.90;41.98;101445.43;106372;1254;60373;-74
2023/05/12 06:50:09;;;;;;;12.90;6.90;;;;;;;15.99;41.62;101445.02;106200;1254;66018;-69
2023/05/12 06:52:36;;;;;;;9.10;5.80;;;;;;;16.07;42.15;101444.66;106095;1254;62687;-67
2023/05/12 06:55:05;;;;;;;12.40;6.30;;;;;;;16.15;41.84;101444.15;106167;1254;64622;-75
2023/05/12 06:57:32;;;;;;;7.70;5.30;;;;;;;16.24;41.24;101446.08;106287;1254;60470;-66
2023/05/12 07:00:01;;;;;;;8.30;5.00;;;;;;;16.31;40.71;101449.36;106246;1253;60329;-69
2023/05/12 07:02:29;;;;;;;10.20;6.30;;;;;;;16.37;40.14;101446.81;106171;1258;67311;-68
2023/05/12 07:04:56;;;;;;;8.90;5.90;;;;;;;16.43;39.89;101444.73;106482;1254;62256;-68
2023/05/12 07:07:23;;;;;;;9.40;5.60;;;;;;;16.47;39.76;101441.92;106131;1259;66724;-68
2023/05/12 07:09:50;;;;;;;8.50;5.20;;;;;;;16.53;39.64;101439.39;106165;1254;60465;-67
2023/05/12 07:12:17;;;;;;;8.90;5.10;;;;;;;16.60;39.86;101440.22;106110;1259;60559;-68
2023/05/12 07:14:44;;;;;;;8.00;5.40;;;;;;;16.66;39.13;101439.30;106340;1257;69202;-66
2023/05/12 07:17:11;;;;;;;7.90;5.00;;;;;;;16.70;38.55;101439.00;106292;1258;63419;-67
2023/05/12 07:19:39;;;;;;;8.40;5.30;;;;;;;16.74;38.73;101439.71;106198;1260;66133;-66
2023/05/12 07:22:06;;;;;;;10.70;5.10;;;;;;;16.80;38.68;101441.45;106274;1251;60377;-66
2023/05/12 07:24:33;;;;;;;9.00;5.30;;;;;;;16.87;38.18;101442.79;106072;1260;60491;-67
2023/05/12 07:27:00;;;;;;;8.10;5.10;;;;;;;16.93;37.89;101440.35;106193;1259;67045;-67
2023/05/12 07:29:27;;;;;;;9.00;5.60;;;;;;;16.99;37.74;101438.90;106150;1258;63921;-67
2023/05/12 07:31:54;;;;;;;11.40;5.70;;;;;;;17.06;37.62;101439.48;106199;1255;66055;-66
2023/05/12 07:34:21;;;;;;;7.70;5.80;;;;;;;17.13;37.39;101441.52;106323;1253;60658;-67
2023/05/12 07:36:48;;;;;;;8.10;5.50;;;;;;;17.18;36.94;101441.61;106149;1254;60543;-68
2023/05/12 07:39:22;;;;;;;8.90;5.20;;;;;;;17.22;37.03;101441.10;106187;1259;67606;-70
2023/05/12 07:41:49;;;;;;;8.70;4.90;;;;;;;17.27;37.20;101441.88;106227;1259;62580;-68
2023/05/12 07:44:16;;;;;;;7.80;4.30;;;;;;;17.33;37.26;101441.67;106153;1254;65136;-70
2023/05/12 07:46:43;;;;;;;8.30;5.30;;;;;;;17.39;36.92;101441.85;106240;1251;60823;-68
2023/05/12 07:49:10;;;;;;;10.20;4.60;;;;;;;17.44;37.43;101442.39;106336;1253;60500;-67
2023/05/12 07:51:38;;;;;;;11.10;5.20;;;;;;;17.52;37.64;101443.27;106200;1258;66197;-69
2023/05/12 07:54:06;;;;;;;9.80;5.40;;;;;;;17.63;37.72;101437.86;106256;1254;62785;-66
2023/05/12 07:56:33;;;;;;;8.80;5.70;;;;;;;17.73;37.19;101435.11;107751;1254;66397;-66
2023/05/12 07:59:00;;;;;;;9.40;5.10;;;;;;;17.82;36.46;101435.91;106179;1257;60944;-69
2023/05/12 08:01:27;;;;;;;7.80;4.80;;;;;;;17.86;36.11;101433.72;106152;1259;60593;-68
2023/05/12 08:03:53;;;;;;;7.00;4.50;;;;;;;17.92;36.11;101435.67;106118;1254;67434;-69
2023/05/12 08:06:21;;;;;;;7.90;3.90;;;;;;;17.98;35.56;101433.51;106249;1254;62669;-68
2023/05/12 08:08:48;;;;;;;6.00;3.80;;;;;;;18.05;35.82;101433.42;106240;1254;64920;-70
2023/05/12 08:11:15;;;;;;;8.50;4.40;;;;;;;18.14;35.61;101431.84;106235;1252;60367;-76
2023/05/12 08:13:42;;;;;;;8.00;5.00;;;;;;;18.24;35.15;101428.08;106251;1251;60460;-76
2023/05/12 08:16:09;;;;;;;9.20;4.60;;;;;;;18.33;35.11;101426.45;106236;1254;66157;-75
2023/05/12 08:18:36;;;;;;;7.30;4.20;;;;;;;18.44;35.45;101428.72;106248;1259;62726;-72
2023/05/12 08:21:03;;;;;;;26.80;7.20;;;;;;;18.56;35.81;101428.84;106271;1259;65170;-76
2023/05/12 08:23:30;;;;;;;8.60;4.00;;;;;;;18.68;35.17;101426.98;106281;1258;59218;-75
2023/05/12 08:25:56;;;;;;;7.70;4.30;;;;;;;18.79;34.52;101423.98;106245;1253;60354;-75
2023/05/12 08:28:23;;;;;;;9.20;4.30;;;;;;;18.86;33.97;101418.46;106145;1259;67275;-75
2023/05/12 08:30:50;;;;;;;8.50;3.80;;;;;;;18.93;33.62;101416.39;106325;1254;63393;-74
2023/05/12 08:33:17;;;;;;;5.40;2.80;;;;;;;18.97;33.09;101415.80;106170;1254;66157;-73
2023/05/12 08:35:44;;;;;;;11.50;3.90;;;;;;;19.00;32.52;101416.45;106197;1259;60453;-77
2023/05/12 08:38:11;;;;;;;8.60;3.50;;;;;;;19.03;32.48;101417.73;106143;1259;60445;-78
2023/05/12 08:40:45;;;;;;;6.30;3.30;;;;;;;19.09;32.85;101414.63;106208;1254;66029;-76
2023/05/12 08:43:24;;;;;;;26.10;5.60;;;;;;;19.17;32.89;101414.13;106291;1254;63815;-79
2023/05/12 08:45:56;;;;;;;7.90;3.90;;;;;;;19.27;32.90;101413.91;106229;1254;65874;-71
2023/05/12 08:48:26;;;;;;;5.90;3.30;;;;;;;19.36;32.84;101415.59;106340;1260;60479;-71
2023/05/12 08:50:53;;;;;;;7.30;3.90;;;;;;;19.43;32.23;101416.67;107011;1253;60453;-72
2023/05/12 08:53:23;;;;;;;7.40;3.60;;;;;;;19.44;31.93;101414.44;106347;1254;67277;-74
2023/05/12 08:55:50;;;;;;;6.60;2.80;;;;;;;19.49;31.75;101413.48;106348;1254;63553;-74
2023/05/12 08:58:37;;;;;;;7.20;3.60;;;;;;;19.57;30.98;101408.92;106344;1258;66444;-73
2023/05/12 09:01:09;;;;;;;9.60;3.70;;;;;;;19.64;31.27;101410.27;105740;1253;60562;-71
2023/05/12 09:03:35;;;;;;;7.10;3.40;;;;;;;19.75;31.27;101407.06;105533;1258;60450;-73
2023/05/12 09:06:02;;;;;;;6.40;2.90;;;;;;;19.87;31.12;101406.00;106221;1256;67566;-70
2023/05/12 09:08:31;;;;;;;6.30;3.10;;;;;;;20.02;30.95;101408.04;106248;1258;63553;-70
2023/05/12 09:10:59;;;;;;;9.60;2.90;;;;;;;20.16;30.78;101404.98;105853;1254;64894;-68
2023/05/12 09:13:35;;;;;;;7.30;3.10;;;;;;;20.29;30.90;101406.34;107517;1256;60510;-66
2023/05/12 09:16:02;;;;;;;5.20;2.60;;;;;;;20.39;30.04;101401.86;106334;1257;59719;-70
2023/05/12 09:18:53;;;;;;;6.90;3.10;;;;;;;20.43;29.38;101399.50;106072;1252;67570;-70
2023/05/12 09:21:22;;;;;;;8.90;3.50;;;;;;;20.42;29.52;101402.04;106216;1253;63835;-72
2023/05/12 09:23:57;;;;;;;5.40;2.90;;;;;;;20.48;29.59;101399.85;106259;1259;66130;-73
2023/05/12 09:26:25;;;;;;;6.70;2.80;;;;;;;20.59;29.00;101396.01;106470;1257;59497;-72
2023/05/12 09:28:53;;;;;;;4.80;2.30;;;;;;;20.70;27.83;101391.08;106328;1256;60374;-72
2023/05/12 09:31:21;;;;;;;5.40;2.70;;;;;;;20.76;27.51;101386.70;106223;1259;66134;-72
2023/05/12 09:33:49;;;;;;;7.50;2.90;;;;;;;20.83;27.64;101388.88;106352;1254;63890;-72
2023/05/12 09:36:25;;;;;;;5.20;2.70;;;;;;;20.93;27.66;101381.48;106253;1254;66116;-72
2023/05/12 09:39:07;;;;;;;4.70;2.30;;;;;;;21.04;27.08;101381.58;106402;1259;59652;-73
2023/05/12 09:41:38;;;;;;;6.20;2.70;;;;;;;21.11;26.50;101382.54;106344;1253;60494;-73
2023/05/12 09:44:07;;;;;;;5.60;2.70;;;;;;;21.18;26.21;101384.88;106241;1254;67341;-71
2023/05/12 09:46:34;;;;;;;6.10;2.60;;;;;;;21.22;26.15;101384.23;106766;1251;63621;-71
2023/05/12 09:49:02;;;;;;;6.40;2.40;;;;;;;21.21;25.54;101380.28;106320;1254;66163;-74
2023/05/12 09:51:32;;;;;;;7.30;2.50;;;;;;;21.18;26.09;101379.35;106313;1254;60484;-72
2023/05/12 09:53:59;;;;;;;6.50;2.20;;;;;;;21.21;26.72;101377.40;106419;1254;60319;-72
2023/05/12 09:56:27;;;;;;;6.60;2.20;;;;;;;21.31;26.47;101374.89;106296;1254;66247;-71
2023/05/12 09:58:58;;;;;;;10.40;2.20;;;;;;;21.43;25.97;101373.58;108116;1254;63780;-70
2023/05/12 10:01:26;;;;;;;5.50;2.10;;;;;;;21.53;26.29;101369.40;106292;1257;66142;-72
2023/05/12 10:03:55;;;;;;;6.00;1.90;;;;;;;21.65;26.36;101366.98;106437;1254;60686;-71
2023/05/12 10:06:27;;;;;;;8.80;2.20;;;;;;;21.75;25.75;101362.88;105161;1254;359975;-72
2023/05/12 10:10:51;;;;;;;6.50;2.30;;;;;;;21.76;25.50;101366.14;103310;1290;601417;-72
2023/05/12 10:13:18;;;;;;;4.70;1.70;;;;;;;21.95;24.62;101359.89;105685;1269;59563;-69
2023/05/12 10:15:46;;;;;;;5.80;1.90;;;;;;;21.95;22.87;101356.58;104550;1267;59196;-71
2023/05/12 10:18:13;;;;;;;7.80;1.80;;;;;;;21.84;22.99;101362.27;104575;1273;66033;-70
2023/05/12 10:20:42;;;;;;;4.40;2.00;;;;;;;21.78;23.49;101360.95;104788;1272;63835;-71
2023/05/12 10:23:11;;;;;;;4.60;2.10;;;;;;;21.81;24.47;101357.86;105386;1267;66015;-70
2023/05/12 10:25:40;;;;;;;21.50;5.00;;;;;;;21.94;24.95;101350.98;105581;1267;223962;-72
2023/05/12 10:28:07;;;;;;;24.80;4.90;;;;;;;22.10;24.79;101353.34;107599;1267;59297;-73
2023/05/12 10:30:36;;;;;;;21.90;4.60;;;;;;;22.26;24.53;101350.54;106162;1261;65728;-74
2023/05/12 10:33:04;;;;;;;15.60;4.10;;;;;;;22.40;24.78;101348.02;107366;1264;63495;-73
2023/05/12 10:35:32;;;;;;;11.30;3.50;;;;;;;22.54;25.33;101343.95;105822;1264;66236;-71
2023/05/12 10:38:07;;;;;;;17.60;3.40;;;;;;;22.69;25.04;101344.45;106231;1264;62973;-73
2023/05/12 10:40:34;;;;;;;8.80;3.00;;;;;;;22.83;25.06;101344.78;105658;1261;59619;-73
2023/05/12 10:43:02;;;;;;;5.20;2.30;;;;;;;22.94;24.75;101340.31;107874;1269;65505;-74
2023/05/12 10:45:34;;;;;;;6.20;2.80;;;;;;;22.99;25.02;101340.40;106204;1269;62718;-72
2023/05/12 10:48:05;;;;;;;4.70;2.00;;;;;;;23.05;24.92;101338.73;105739;1267;65244;-71
2023/05/12 10:50:32;;;;;;;4.40;1.80;;;;;;;23.12;24.65;101342.55;105685;1264;59717;-70
2023/05/12 10:52:59;;;;;;;5.30;2.20;;;;;;;23.18;24.22;101339.48;105704;1267;59695;-71
2023/05/12 10:55:34;;;;;;;6.00;2.50;;;;;;;23.22;24.35;101339.21;105766;1262;65397;-70
2023/05/12 10:58:09;;;;;;;3.50;1.60;;;;;;;23.19;23.66;101337.77;106444;1269;62773;-71
2023/05/12 11:00:44;;;;;;;6.40;2.30;;;;;;;23.13;23.38;101334.40;105190;1265;66385;-70
2023/05/12 11:03:13;;;;;;;;;;;;;;;23.11;23.21;101330.15;105842;1267;59672;-71
2023/05/12 11:05:42;;;;;;;4.60;2.20;;;;;;;23.01;23.10;101325.52;104782;1267;59647;-71
2023/05/12 11:08:10;;;;;;;4.60;2.20;;;;;;;22.88;23.22;101325.25;105962;1269;67127;-71
2023/05/12 11:10:40;;;;;;;5.10;2.40;;;;;;;22.80;23.06;101328.59;105694;1267;63924;-71
2023/05/12 11:13:07;;;;;;;5.20;3.10;;;;;;;22.71;23.46;101325.48;105771;1267;66009;-70
2023/05/12 11:15:34;;;;;;;9.50;2.80;;;;;;;22.70;23.75;101324.24;105804;1261;59734;-71
2023/05/12 11:18:02;;;;;;;5.20;2.30;;;;;;;22.74;23.92;101321.77;105623;1267;59503;-72
2023/05/12 11:20:29;;;;;;;52.20;7.80;;;;;;;22.83;24.25;101317.79;105731;1263;66538;-72